createdAt,value
2023-03-23T15:58:27.266Z,17.57
2023-03-23T16:00:01.040Z,17.35
2023-03-23T16:01:34.298Z,17.23
2023-03-23T16:03:13.741Z,17.11
2023-03-23T16:04:48.024Z,17.02
2023-03-23T16:06:25.500Z,16.92
2023-03-23T16:07:59.185Z,16.76
2023-03-23T16:09:32.472Z,16.57
2023-03-23T16:11:06.703Z,16.46
2023-03-23T16:12:40.082Z,16.25
2023-03-23T16:14:13.414Z,16.14
2023-03-23T16:15:48.738Z,16.04
2023-03-23T16:17:22.033Z,15.95
2023-03-23T16:18:56.924Z,15.82
2023-03-23T16:20:33.250Z,15.66
2023-03-23T16:22:08.363Z,15.60
2023-03-23T16:23:44.535Z,15.47
2023-03-23T16:25:19.277Z,15.35
2023-03-23T16:26:52.415Z,15.29
2023-03-23T16:28:25.759Z,15.20
2023-03-23T16:30:04.330Z,15.17
2023-03-23T16:31:38.125Z,15.08
2023-03-23T16:33:11.885Z,15.02
2023-03-23T16:34:46.417Z,14.96
2023-03-23T16:36:19.614Z,14.86
2023-03-23T16:38:07.392Z,14.80
2023-03-23T16:39:42.101Z,14.73
2023-03-23T16:41:15.257Z,14.60
2023-03-23T16:42:48.990Z,14.55
2023-03-23T16:44:22.432Z,14.46
2023-03-23T16:45:57.630Z,14.41
2023-03-23T16:47:31.043Z,14.32
2023-03-23T16:49:04.317Z,14.25
2023-03-23T16:50:39.660Z,14.17
2023-03-23T16:52:12.857Z,14.07
2023-03-23T16:53:45.952Z,13.99
2023-03-23T16:55:19.338Z,13.92
2023-03-23T16:56:52.880Z,13.89
2023-03-23T16:58:26.492Z,13.82
2023-03-23T16:59:58.769Z,13.77
2023-03-23T17:01:32.091Z,13.69
2023-03-23T17:03:05.931Z,13.63
2023-03-23T17:04:44.462Z,13.54
2023-03-23T17:06:19.021Z,13.51
2023-03-23T17:07:52.226Z,13.55
2023-03-23T17:09:26.051Z,13.52
2023-03-23T17:10:59.326Z,13.46
2023-03-23T17:12:32.610Z,13.44
2023-03-23T17:14:05.813Z,13.42
2023-03-23T17:15:39.800Z,13.40
2023-03-23T17:17:13.258Z,13.36
2023-03-23T17:18:46.444Z,13.32
2023-03-23T17:20:19.799Z,13.22
2023-03-23T17:21:54.580Z,13.15
2023-03-23T17:23:27.785Z,13.06
2023-03-23T17:25:02.276Z,12.97
2023-03-23T17:26:36.076Z,12.91
2023-03-23T17:28:09.847Z,12.83
2023-03-23T17:29:42.985Z,12.78
2023-03-23T17:31:16.236Z,12.66
2023-03-23T17:32:49.616Z,12.61
2023-03-23T17:34:22.974Z,12.49
2023-03-23T17:35:58.733Z,12.46
2023-03-23T17:37:33.535Z,12.44
2023-03-23T17:39:06.727Z,12.41
2023-03-23T17:40:40.312Z,12.30
2023-03-23T17:42:13.823Z,12.22
2023-03-23T17:43:46.957Z,12.13
2023-03-23T17:45:20.338Z,12.08
2023-03-23T17:46:56.158Z,12.01
2023-03-23T17:48:29.340Z,11.96
2023-03-23T17:50:12.327Z,11.87
2023-03-23T17:51:46.138Z,11.81
2023-03-23T17:53:21.381Z,11.78
2023-03-23T17:54:54.690Z,11.76
2023-03-23T17:56:28.661Z,11.74
2023-03-23T17:58:01.947Z,11.74
2023-03-23T17:59:35.370Z,11.62
2023-03-23T18:01:08.919Z,11.62
2023-03-23T18:02:42.215Z,11.59
2023-03-23T18:04:15.640Z,11.54
2023-03-23T18:05:49.104Z,11.48
2023-03-23T18:07:23.982Z,11.27
2023-03-23T18:08:58.712Z,11.29
2023-03-23T18:10:32.044Z,11.23
2023-03-23T18:12:05.600Z,11.23
2023-03-23T18:13:39.659Z,11.20
2023-03-23T18:15:13.341Z,11.14
2023-03-23T18:16:46.632Z,11.11
2023-03-23T18:18:20.069Z,11.19
2023-03-23T18:19:53.295Z,11.15
2023-03-23T18:21:27.061Z,11.11
2023-03-23T18:23:00.644Z,11.02
2023-03-23T18:24:35.835Z,10.91
2023-03-23T18:26:10.923Z,10.84
2023-03-23T18:27:44.203Z,10.83
2023-03-23T18:29:17.385Z,10.81
2023-03-23T18:30:50.876Z,10.75
2023-03-23T18:32:24.019Z,10.68
2023-03-23T18:33:57.499Z,10.63
2023-03-23T18:35:31.167Z,10.62
2023-03-23T18:37:05.207Z,10.61
2023-03-23T18:38:39.186Z,10.60
2023-03-23T18:40:14.541Z,10.58
2023-03-23T18:41:47.776Z,10.55
2023-03-23T18:43:21.234Z,10.54
2023-03-23T18:44:55.970Z,10.53
2023-03-23T18:46:29.306Z,10.53
2023-03-23T18:48:04.970Z,10.47
2023-03-23T18:49:38.581Z,10.39
2023-03-23T18:51:12.316Z,10.31
2023-03-23T18:52:45.787Z,10.26
2023-03-23T18:54:19.071Z,10.25
2023-03-23T18:55:54.190Z,10.21
2023-03-23T18:57:27.815Z,10.19
2023-03-23T18:59:01.011Z,10.17
2023-03-23T19:00:34.631Z,10.13
2023-03-23T19:02:08.241Z,10.14
2023-03-23T19:03:41.944Z,10.10
2023-03-23T19:05:15.258Z,10.03
2023-03-23T19:06:48.426Z,9.96
2023-03-23T19:08:21.671Z,9.91
2023-03-23T19:09:55.014Z,9.80
2023-03-23T19:11:29.783Z,9.76
2023-03-23T19:13:03.272Z,9.73
2023-03-23T19:14:37.440Z,9.77
2023-03-23T19:16:11.045Z,9.69
2023-03-23T19:17:44.579Z,9.72
2023-03-23T19:19:17.696Z,9.77
2023-03-23T19:21:09.646Z,9.72
2023-03-23T19:22:45.037Z,9.64
2023-03-23T19:24:18.313Z,9.55
2023-03-23T19:25:53.584Z,9.51
2023-03-23T19:27:28.512Z,9.45
2023-03-23T19:30:38.056Z,9.36
2023-03-23T19:32:11.527Z,9.33
2023-03-23T19:33:45.503Z,9.34
2023-03-23T19:35:20.895Z,9.33
2023-03-23T19:37:03.261Z,9.34
2023-03-23T19:38:38.733Z,9.36
2023-03-23T19:40:31.075Z,9.36
2023-03-23T19:42:07.267Z,9.33
2023-03-23T19:43:43.453Z,9.39
2023-03-23T19:45:17.045Z,9.30
2023-03-23T19:46:50.425Z,9.26
2023-03-23T19:48:24.534Z,9.09
2023-03-23T19:49:59.960Z,8.97
2023-03-23T19:51:33.461Z,8.90
2023-03-23T19:53:06.761Z,8.82
2023-03-23T19:54:41.028Z,8.72
2023-03-23T19:56:16.201Z,8.49
2023-03-23T19:57:50.752Z,8.33
2023-03-23T19:59:25.492Z,8.23
2023-03-23T20:00:58.796Z,8.12
2023-03-23T20:02:32.211Z,8.18
2023-03-23T20:04:07.043Z,8.24
2023-03-23T20:05:41.282Z,8.20
2023-03-23T20:07:14.946Z,8.17
2023-03-23T20:08:49.232Z,8.13
2023-03-23T20:10:23.525Z,8.11
2023-03-23T20:11:57.090Z,8.10
2023-03-23T20:13:30.193Z,8.13
2023-03-23T20:15:05.458Z,8.17
2023-03-23T20:16:38.927Z,8.24
2023-03-23T20:18:14.670Z,8.26
2023-03-23T20:19:47.937Z,8.26
2023-03-23T20:21:23.017Z,8.25
2023-03-23T20:22:57.972Z,8.26
2023-03-23T20:24:31.862Z,8.22
2023-03-23T20:26:07.918Z,8.21
2023-03-23T20:27:41.748Z,8.15
2023-03-23T20:29:15.376Z,8.13
2023-03-23T20:30:49.890Z,8.08
2023-03-23T20:32:46.368Z,8.04
2023-03-23T20:34:29.047Z,8.03
2023-03-23T20:36:03.443Z,8.02
2023-03-23T20:37:38.703Z,8.00
2023-03-23T20:39:14.844Z,7.97
2023-03-23T20:40:48.209Z,7.96
2023-03-23T20:42:21.611Z,7.90
2023-03-23T20:43:54.770Z,7.91
2023-03-23T20:45:28.283Z,7.88
2023-03-23T20:47:04.180Z,7.88
2023-03-23T20:48:38.510Z,7.82
2023-03-23T20:50:12.475Z,7.76
2023-03-23T20:51:46.705Z,7.72
2023-03-23T20:53:20.522Z,7.73
2023-03-23T20:54:54.033Z,7.67
2023-03-23T20:56:27.301Z,7.67
2023-03-23T20:58:00.572Z,7.64
2023-03-23T20:59:33.910Z,7.57
2023-03-23T21:01:09.329Z,7.50
2023-03-23T21:02:43.982Z,7.49
2023-03-23T21:04:19.989Z,7.51
2023-03-23T21:05:53.258Z,7.53
2023-03-23T21:07:27.535Z,7.57
2023-03-23T21:09:00.986Z,7.58
2023-03-23T21:10:34.290Z,7.56
2023-03-23T21:12:09.318Z,7.50
2023-03-23T21:13:41.506Z,7.42
2023-03-23T21:15:14.695Z,7.38
2023-03-23T21:16:47.988Z,7.40
2023-03-23T21:18:23.143Z,7.37
2023-03-23T21:19:56.734Z,7.44
2023-03-23T21:21:29.979Z,7.46
2023-03-23T21:23:05.992Z,7.44
2023-03-23T21:24:40.464Z,7.32
2023-03-23T21:26:16.011Z,7.18
2023-03-23T21:27:49.449Z,6.92
2023-03-23T21:29:24.439Z,6.79
2023-03-23T21:31:02.381Z,6.79
2023-03-23T21:32:35.780Z,6.79
2023-03-23T21:34:10.359Z,6.75
2023-03-23T21:35:43.749Z,6.68
2023-03-23T21:37:17.142Z,6.67
2023-03-23T21:38:50.456Z,6.63
2023-03-23T21:40:23.611Z,6.69
2023-03-23T21:41:59.664Z,6.57
2023-03-23T21:43:32.032Z,6.40
2023-03-23T21:45:06.291Z,6.22
2023-03-23T21:46:40.391Z,6.21
2023-03-23T21:48:15.685Z,6.19
2023-03-23T21:49:51.769Z,6.18
2023-03-23T21:51:27.265Z,6.23
2023-03-23T21:53:01.496Z,6.25
2023-03-23T21:54:34.871Z,6.27
2023-03-23T21:56:10.221Z,6.28
2023-03-23T21:57:43.778Z,6.24
2023-03-23T21:59:16.976Z,6.31
2023-03-23T22:00:54.164Z,6.31
2023-03-23T22:02:27.568Z,6.31
2023-03-23T22:04:00.943Z,6.26
2023-03-23T22:05:36.510Z,6.31
2023-03-23T22:07:10.266Z,6.27
2023-03-23T22:08:45.233Z,6.18
2023-03-23T22:10:18.750Z,6.16
2023-03-23T22:11:51.980Z,6.25
2023-03-23T22:13:25.549Z,6.21
2023-03-23T22:14:58.843Z,6.13
2023-03-23T22:16:32.680Z,6.02
2023-03-23T22:18:06.123Z,6.02
2023-03-23T22:19:40.574Z,6.02
2023-03-23T22:21:17.578Z,6.05
2023-03-23T22:22:51.700Z,6.06
2023-03-23T22:24:25.105Z,6.06
2023-03-23T22:25:57.617Z,6.05
2023-03-23T22:27:30.966Z,6.02
2023-03-23T22:29:04.940Z,6.04
2023-03-23T22:30:38.698Z,6.04
2023-03-23T22:32:12.069Z,6.09
2023-03-23T22:33:46.240Z,6.06
2023-03-23T22:35:19.666Z,6.05
2023-03-23T22:36:54.436Z,6.01
2023-03-23T22:38:27.988Z,5.92
2023-03-23T22:40:01.794Z,5.88
2023-03-23T22:41:37.050Z,5.78
2023-03-23T22:43:10.296Z,5.75
2023-03-23T22:44:43.771Z,5.79
2023-03-23T22:46:17.663Z,5.76
2023-03-23T22:47:51.252Z,5.74
2023-03-23T22:49:24.526Z,5.72
2023-03-23T22:51:02.831Z,5.71
2023-03-23T22:52:41.583Z,5.68
2023-03-23T22:54:14.863Z,5.66
2023-03-23T22:55:50.421Z,5.63
2023-03-23T22:57:23.695Z,5.65
2023-03-23T22:59:02.146Z,5.64
2023-03-23T23:00:35.377Z,5.68
2023-03-23T23:02:08.776Z,5.69
2023-03-23T23:03:42.616Z,5.71
2023-03-23T23:05:20.703Z,5.74
2023-03-23T23:07:03.205Z,5.74
2023-03-23T23:08:45.795Z,5.79
2023-03-23T23:10:19.577Z,5.78
2023-03-23T23:11:52.922Z,5.71
2023-03-23T23:13:26.985Z,5.81
2023-03-23T23:15:00.660Z,5.78
2023-03-23T23:16:34.353Z,5.82
2023-03-23T23:18:08.071Z,5.89
2023-03-23T23:19:41.396Z,5.89
2023-03-23T23:21:16.730Z,5.90
2023-03-23T23:22:50.009Z,5.88
2023-03-23T23:24:26.511Z,5.89
2023-03-23T23:25:59.720Z,5.77
2023-03-23T23:27:33.286Z,5.81
2023-03-23T23:29:06.539Z,5.81
2023-03-23T23:30:39.602Z,5.80
2023-03-23T23:32:13.148Z,5.74
2023-03-23T23:33:46.773Z,5.54
2023-03-23T23:35:20.095Z,5.49
2023-03-23T23:36:53.595Z,5.39
2023-03-23T23:38:26.969Z,5.29
2023-03-23T23:40:01.733Z,5.25
2023-03-23T23:41:35.255Z,5.31
2023-03-23T23:43:07.954Z,5.30
2023-03-23T23:44:41.209Z,5.27
2023-03-23T23:46:14.705Z,5.19
2023-03-23T23:47:47.432Z,5.12
2023-03-23T23:49:23.038Z,5.13
2023-03-23T23:50:56.324Z,5.13
2023-03-23T23:52:29.791Z,5.05
2023-03-23T23:54:04.615Z,5.06
2023-03-23T23:55:40.162Z,5.04
2023-03-23T23:57:13.625Z,5.01
2023-03-23T23:58:48.320Z,4.99
